sensor_id;sensor_type;location;lat;lon;timestamp;P1;durP1;ratioP1;P2;durP2;ratioP2
72125;SDS011;59999;51.676;22.650;2023-11-19T00:00:46;32.67;;;9.63;;
72125;SDS011;59999;51.676;22.650;2023-11-19T00:03:32;33.80;;;10.32;;
72125;SDS011;59999;51.676;22.650;2023-11-19T00:05:59;29.40;;;9.80;;
72125;SDS011;59999;51.676;22.650;2023-11-19T00:08:25;30.45;;;10.05;;
72125;SDS011;59999;51.676;22.650;2023-11-19T00:10:50;36.13;;;10.10;;
72125;SDS011;59999;51.676;22.650;2023-11-19T00:13:16;35.78;;;10.95;;
72125;SDS011;59999;51.676;22.650;2023-11-19T00:15:42;33.40;;;10.10;;
72125;SDS011;59999;51.676;22.650;2023-11-19T00:18:08;36.72;;;11.27;;
72125;SDS011;59999;51.676;22.650;2023-11-19T00:20:33;31.60;;;10.07;;
72125;SDS011;59999;51.676;22.650;2023-11-19T00:22:59;31.17;;;10.20;;
72125;SDS011;59999;51.676;22.650;2023-11-19T00:25:26;36.00;;;11.37;;
72125;SDS011;59999;51.676;22.650;2023-11-19T00:27:52;30.80;;;10.73;;
72125;SDS011;59999;51.676;22.650;2023-11-19T00:30:19;30.92;;;10.55;;
72125;SDS011;59999;51.676;22.650;2023-11-19T00:32:45;37.78;;;11.18;;
72125;SDS011;59999;51.676;22.650;2023-11-19T00:35:10;38.43;;;11.23;;
72125;SDS011;59999;51.676;22.650;2023-11-19T00:37:36;35.72;;;11.20;;
72125;SDS011;59999;51.676;22.650;2023-11-19T00:40:02;37.35;;;10.82;;
72125;SDS011;59999;51.676;22.650;2023-11-19T00:42:31;37.70;;;12.07;;
72125;SDS011;59999;51.676;22.650;2023-11-19T00:44:57;30.85;;;10.80;;
72125;SDS011;59999;51.676;22.650;2023-11-19T00:47:23;34.15;;;10.95;;
72125;SDS011;59999;51.676;22.650;2023-11-19T00:49:49;33.07;;;10.53;;
72125;SDS011;59999;51.676;22.650;2023-11-19T00:52:16;34.00;;;11.00;;
72125;SDS011;59999;51.676;22.650;2023-11-19T00:54:42;36.85;;;12.25;;
72125;SDS011;59999;51.676;22.650;2023-11-19T00:57:08;40.00;;;12.23;;
72125;SDS011;59999;51.676;22.650;2023-11-19T00:59:34;37.80;;;10.70;;
72125;SDS011;59999;51.676;22.650;2023-11-19T01:02:00;42.55;;;11.13;;
72125;SDS011;59999;51.676;22.650;2023-11-19T01:04:33;38.60;;;10.27;;
72125;SDS011;59999;51.676;22.650;2023-11-19T01:07:01;38.17;;;9.90;;
72125;SDS011;59999;51.676;22.650;2023-11-19T01:09:30;34.72;;;9.00;;
72125;SDS011;59999;51.676;22.650;2023-11-19T01:12:00;30.42;;;10.25;;
72125;SDS011;59999;51.676;22.650;2023-11-19T01:14:27;36.08;;;11.43;;
72125;SDS011;59999;51.676;22.650;2023-11-19T01:16:53;36.97;;;11.00;;
72125;SDS011;59999;51.676;22.650;2023-11-19T01:19:20;33.75;;;9.85;;
72125;SDS011;59999;51.676;22.650;2023-11-19T01:21:48;33.90;;;10.93;;
72125;SDS011;59999;51.676;22.650;2023-11-19T01:24:14;31.85;;;10.02;;
72125;SDS011;59999;51.676;22.650;2023-11-19T01:26:40;37.25;;;11.57;;
72125;SDS011;59999;51.676;22.650;2023-11-19T01:29:13;31.83;;;10.30;;
72125;SDS011;59999;51.676;22.650;2023-11-19T01:31:43;32.17;;;9.40;;
72125;SDS011;59999;51.676;22.650;2023-11-19T01:34:10;35.17;;;9.80;;
72125;SDS011;59999;51.676;22.650;2023-11-19T01:36:37;29.02;;;9.48;;
72125;SDS011;59999;51.676;22.650;2023-11-19T01:39:02;31.63;;;10.57;;
72125;SDS011;59999;51.676;22.650;2023-11-19T01:41:36;34.35;;;10.48;;
72125;SDS011;59999;51.676;22.650;2023-11-19T01:44:01;32.75;;;10.25;;
72125;SDS011;59999;51.676;22.650;2023-11-19T01:46:28;32.47;;;10.15;;
72125;SDS011;59999;51.676;22.650;2023-11-19T01:48:55;34.40;;;10.88;;
72125;SDS011;59999;51.676;22.650;2023-11-19T01:51:21;35.93;;;10.97;;
72125;SDS011;59999;51.676;22.650;2023-11-19T01:53:47;34.83;;;10.70;;
72125;SDS011;59999;51.676;22.650;2023-11-19T01:56:14;37.33;;;10.52;;
72125;SDS011;59999;51.676;22.650;2023-11-19T01:58:41;32.93;;;9.63;;
72125;SDS011;59999;51.676;22.650;2023-11-19T02:01:10;34.67;;;10.63;;
72125;SDS011;59999;51.676;22.650;2023-11-19T02:03:37;41.08;;;10.63;;
72125;SDS011;59999;51.676;22.650;2023-11-19T02:06:03;32.70;;;11.02;;
72125;SDS011;59999;51.676;22.650;2023-11-19T02:08:30;33.88;;;10.52;;
72125;SDS011;59999;51.676;22.650;2023-11-19T02:10:56;39.57;;;10.87;;
72125;SDS011;59999;51.676;22.650;2023-11-19T02:13:25;39.00;;;10.73;;
72125;SDS011;59999;51.676;22.650;2023-11-19T02:15:52;42.97;;;10.55;;
72125;SDS011;59999;51.676;22.650;2023-11-19T02:18:22;39.25;;;10.82;;
72125;SDS011;59999;51.676;22.650;2023-11-19T02:20:55;39.70;;;9.77;;
72125;SDS011;59999;51.676;22.650;2023-11-19T02:23:22;40.47;;;10.35;;
72125;SDS011;59999;51.676;22.650;2023-11-19T02:26:13;34.70;;;9.73;;
72125;SDS011;59999;51.676;22.650;2023-11-19T02:28:42;36.40;;;10.07;;
72125;SDS011;59999;51.676;22.650;2023-11-19T02:31:09;31.67;;;10.32;;
72125;SDS011;59999;51.676;22.650;2023-11-19T02:33:36;40.60;;;10.30;;
72125;SDS011;59999;51.676;22.650;2023-11-19T02:36:05;33.05;;;9.10;;
72125;SDS011;59999;51.676;22.650;2023-11-19T02:38:32;33.63;;;9.05;;
72125;SDS011;59999;51.676;22.650;2023-11-19T02:40:59;35.97;;;9.85;;
72125;SDS011;59999;51.676;22.650;2023-11-19T02:43:30;28.80;;;9.07;;
72125;SDS011;59999;51.676;22.650;2023-11-19T02:46:00;37.17;;;8.20;;
72125;SDS011;59999;51.676;22.650;2023-11-19T02:48:27;28.67;;;8.35;;
72125;SDS011;59999;51.676;22.650;2023-11-19T02:50:53;31.23;;;8.13;;
72125;SDS011;59999;51.676;22.650;2023-11-19T02:53:18;29.90;;;7.20;;
72125;SDS011;59999;51.676;22.650;2023-11-19T02:55:47;32.08;;;8.30;;
72125;SDS011;59999;51.676;22.650;2023-11-19T02:58:15;33.70;;;7.90;;
72125;SDS011;59999;51.676;22.650;2023-11-19T03:00:50;40.70;;;8.32;;
72125;SDS011;59999;51.676;22.650;2023-11-19T03:03:28;36.03;;;7.13;;
72125;SDS011;59999;51.676;22.650;2023-11-19T03:06:04;28.20;;;7.50;;
72125;SDS011;59999;51.676;22.650;2023-11-19T03:08:30;32.25;;;7.78;;
72125;SDS011;59999;51.676;22.650;2023-11-19T03:10:56;37.90;;;7.95;;
72125;SDS011;59999;51.676;22.650;2023-11-19T03:13:22;32.23;;;8.23;;
72125;SDS011;59999;51.676;22.650;2023-11-19T03:15:48;26.83;;;7.35;;
72125;SDS011;59999;51.676;22.650;2023-11-19T03:18:13;31.53;;;7.30;;
72125;SDS011;59999;51.676;22.650;2023-11-19T03:20:39;30.08;;;7.50;;
72125;SDS011;59999;51.676;22.650;2023-11-19T03:23:05;40.60;;;8.33;;
72125;SDS011;59999;51.676;22.650;2023-11-19T03:25:32;36.42;;;8.02;;
72125;SDS011;59999;51.676;22.650;2023-11-19T03:28:02;33.13;;;7.55;;
72125;SDS011;59999;51.676;22.650;2023-11-19T03:30:29;35.22;;;7.78;;
72125;SDS011;59999;51.676;22.650;2023-11-19T03:32:56;45.10;;;7.47;;
72125;SDS011;59999;51.676;22.650;2023-11-19T03:35:23;32.65;;;8.70;;
72125;SDS011;59999;51.676;22.650;2023-11-19T03:37:49;41.55;;;7.30;;
72125;SDS011;59999;51.676;22.650;2023-11-19T03:40:16;34.60;;;7.05;;
72125;SDS011;59999;51.676;22.650;2023-11-19T03:42:44;24.00;;;7.07;;
72125;SDS011;59999;51.676;22.650;2023-11-19T03:45:11;31.30;;;7.23;;
72125;SDS011;59999;51.676;22.650;2023-11-19T03:47:37;33.67;;;8.15;;
72125;SDS011;59999;51.676;22.650;2023-11-19T03:50:03;31.33;;;8.43;;
72125;SDS011;59999;51.676;22.650;2023-11-19T03:52:29;25.50;;;8.13;;
72125;SDS011;59999;51.676;22.650;2023-11-19T03:54:55;30.63;;;7.67;;
72125;SDS011;59999;51.676;22.650;2023-11-19T03:57:22;27.30;;;7.78;;
72125;SDS011;59999;51.676;22.650;2023-11-19T03:59:48;26.73;;;7.53;;
72125;SDS011;59999;51.676;22.650;2023-11-19T04:02:15;32.30;;;8.13;;
72125;SDS011;59999;51.676;22.650;2023-11-19T04:04:41;27.50;;;7.53;;
72125;SDS011;59999;51.676;22.650;2023-11-19T04:07:07;28.65;;;7.75;;
72125;SDS011;59999;51.676;22.650;2023-11-19T04:09:33;32.05;;;9.00;;
72125;SDS011;59999;51.676;22.650;2023-11-19T04:11:59;34.07;;;8.83;;
72125;SDS011;59999;51.676;22.650;2023-11-19T04:14:26;35.38;;;8.55;;
72125;SDS011;59999;51.676;22.650;2023-11-19T04:16:52;33.15;;;8.93;;
72125;SDS011;59999;51.676;22.650;2023-11-19T04:19:18;36.28;;;8.75;;
72125;SDS011;59999;51.676;22.650;2023-11-19T04:21:45;36.10;;;8.27;;
72125;SDS011;59999;51.676;22.650;2023-11-19T04:24:12;36.55;;;8.63;;
72125;SDS011;59999;51.676;22.650;2023-11-19T04:26:42;36.85;;;9.02;;
72125;SDS011;59999;51.676;22.650;2023-11-19T04:29:12;29.45;;;8.77;;
72125;SDS011;59999;51.676;22.650;2023-11-19T04:31:40;33.78;;;8.85;;
72125;SDS011;59999;51.676;22.650;2023-11-19T04:34:06;29.63;;;9.27;;
72125;SDS011;59999;51.676;22.650;2023-11-19T04:36:32;30.23;;;8.88;;
72125;SDS011;59999;51.676;22.650;2023-11-19T04:38:59;35.42;;;9.38;;
72125;SDS011;59999;51.676;22.650;2023-11-19T04:41:25;33.73;;;9.73;;
72125;SDS011;59999;51.676;22.650;2023-11-19T04:43:53;33.22;;;9.43;;
72125;SDS011;59999;51.676;22.650;2023-11-19T04:46:19;25.15;;;7.80;;
72125;SDS011;59999;51.676;22.650;2023-11-19T04:48:45;32.80;;;9.57;;
72125;SDS011;59999;51.676;22.650;2023-11-19T04:51:10;28.23;;;9.13;;
72125;SDS011;59999;51.676;22.650;2023-11-19T04:53:36;35.28;;;9.85;;
72125;SDS011;59999;51.676;22.650;2023-11-19T04:56:11;30.70;;;7.73;;
72125;SDS011;59999;51.676;22.650;2023-11-19T04:58:38;31.23;;;8.10;;
72125;SDS011;59999;51.676;22.650;2023-11-19T05:01:04;36.03;;;9.18;;
72125;SDS011;59999;51.676;22.650;2023-11-19T05:03:30;38.00;;;9.63;;
72125;SDS011;59999;51.676;22.650;2023-11-19T05:05:57;47.20;;;9.75;;
72125;SDS011;59999;51.676;22.650;2023-11-19T05:08:23;39.08;;;9.57;;
72125;SDS011;59999;51.676;22.650;2023-11-19T05:10:49;44.58;;;9.63;;
72125;SDS011;59999;51.676;22.650;2023-11-19T05:13:15;51.30;;;8.75;;
72125;SDS011;59999;51.676;22.650;2023-11-19T05:15:41;51.58;;;9.50;;
72125;SDS011;59999;51.676;22.650;2023-11-19T05:18:06;55.17;;;10.60;;
72125;SDS011;59999;51.676;22.650;2023-11-19T05:20:32;61.45;;;10.25;;
72125;SDS011;59999;51.676;22.650;2023-11-19T05:22:58;61.97;;;10.43;;
72125;SDS011;59999;51.676;22.650;2023-11-19T05:25:25;48.30;;;10.02;;
72125;SDS011;59999;51.676;22.650;2023-11-19T05:27:52;69.18;;;10.63;;
72125;SDS011;59999;51.676;22.650;2023-11-19T05:30:18;75.68;;;10.13;;
72125;SDS011;59999;51.676;22.650;2023-11-19T05:32:44;87.80;;;10.70;;
72125;SDS011;59999;51.676;22.650;2023-11-19T05:35:11;103.33;;;11.73;;
72125;SDS011;59999;51.676;22.650;2023-11-19T05:37:37;66.15;;;9.00;;
72125;SDS011;59999;51.676;22.650;2023-11-19T05:40:03;60.80;;;9.63;;
72125;SDS011;59999;51.676;22.650;2023-11-19T05:42:32;77.75;;;10.40;;
72125;SDS011;59999;51.676;22.650;2023-11-19T05:44:57;64.50;;;10.37;;
72125;SDS011;59999;51.676;22.650;2023-11-19T05:47:23;66.68;;;10.60;;
72125;SDS011;59999;51.676;22.650;2023-11-19T05:49:49;67.63;;;10.37;;
72125;SDS011;59999;51.676;22.650;2023-11-19T05:52:15;67.47;;;10.10;;
72125;SDS011;59999;51.676;22.650;2023-11-19T05:54:40;79.53;;;10.07;;
72125;SDS011;59999;51.676;22.650;2023-11-19T05:57:07;73.95;;;10.55;;
72125;SDS011;59999;51.676;22.650;2023-11-19T05:59:36;54.50;;;10.25;;
72125;SDS011;59999;51.676;22.650;2023-11-19T06:02:02;37.83;;;8.10;;
72125;SDS011;59999;51.676;22.650;2023-11-19T06:04:28;41.20;;;8.63;;
72125;SDS011;59999;51.676;22.650;2023-11-19T06:06:54;51.33;;;9.63;;
72125;SDS011;59999;51.676;22.650;2023-11-19T06:09:23;49.50;;;9.30;;
72125;SDS011;59999;51.676;22.650;2023-11-19T06:11:49;48.25;;;9.23;;
72125;SDS011;59999;51.676;22.650;2023-11-19T06:14:16;52.58;;;8.68;;
72125;SDS011;59999;51.676;22.650;2023-11-19T06:16:42;43.30;;;9.27;;
72125;SDS011;59999;51.676;22.650;2023-11-19T06:19:08;45.15;;;8.65;;
72125;SDS011;59999;51.676;22.650;2023-11-19T06:21:33;42.20;;;9.73;;
72125;SDS011;59999;51.676;22.650;2023-11-19T06:24:01;58.00;;;10.25;;
72125;SDS011;59999;51.676;22.650;2023-11-19T06:26:27;46.55;;;10.35;;
72125;SDS011;59999;51.676;22.650;2023-11-19T06:28:52;46.40;;;10.07;;
72125;SDS011;59999;51.676;22.650;2023-11-19T06:31:18;47.58;;;9.82;;
72125;SDS011;59999;51.676;22.650;2023-11-19T06:33:44;46.77;;;10.23;;
72125;SDS011;59999;51.676;22.650;2023-11-19T06:36:10;54.88;;;9.95;;
72125;SDS011;59999;51.676;22.650;2023-11-19T06:38:35;56.13;;;10.90;;
72125;SDS011;59999;51.676;22.650;2023-11-19T06:41:01;55.67;;;11.30;;
72125;SDS011;59999;51.676;22.650;2023-11-19T06:43:30;66.65;;;10.95;;
72125;SDS011;59999;51.676;22.650;2023-11-19T06:45:59;59.65;;;9.95;;
72125;SDS011;59999;51.676;22.650;2023-11-19T06:48:24;43.27;;;10.17;;
72125;SDS011;59999;51.676;22.650;2023-11-19T06:50:50;50.78;;;9.20;;
72125;SDS011;59999;51.676;22.650;2023-11-19T06:53:16;53.03;;;10.67;;
72125;SDS011;59999;51.676;22.650;2023-11-19T06:55:42;51.10;;;10.18;;
72125;SDS011;59999;51.676;22.650;2023-11-19T06:58:07;70.63;;;10.53;;
72125;SDS011;59999;51.676;22.650;2023-11-19T07:00:33;64.40;;;11.73;;
72125;SDS011;59999;51.676;22.650;2023-11-19T07:03:01;52.10;;;10.25;;
72125;SDS011;59999;51.676;22.650;2023-11-19T07:05:27;61.60;;;9.70;;
72125;SDS011;59999;51.676;22.650;2023-11-19T07:07:53;49.70;;;10.75;;
72125;SDS011;59999;51.676;22.650;2023-11-19T07:10:20;60.00;;;11.43;;
72125;SDS011;59999;51.676;22.650;2023-11-19T07:12:45;67.90;;;10.97;;
72125;SDS011;59999;51.676;22.650;2023-11-19T07:15:12;54.70;;;11.38;;
72125;SDS011;59999;51.676;22.650;2023-11-19T07:17:39;64.75;;;11.35;;
72125;SDS011;59999;51.676;22.650;2023-11-19T07:20:05;61.88;;;11.80;;
72125;SDS011;59999;51.676;22.650;2023-11-19T07:22:31;65.25;;;10.27;;
72125;SDS011;59999;51.676;22.650;2023-11-19T07:24:57;58.07;;;10.30;;
72125;SDS011;59999;51.676;22.650;2023-11-19T07:27:23;56.50;;;10.43;;
72125;SDS011;59999;51.676;22.650;2023-11-19T07:29:49;54.53;;;10.32;;
72125;SDS011;59999;51.676;22.650;2023-11-19T07:32:15;62.17;;;10.43;;
72125;SDS011;59999;51.676;22.650;2023-11-19T07:34:41;64.78;;;11.85;;
72125;SDS011;59999;51.676;22.650;2023-11-19T07:37:07;52.38;;;10.98;;
72125;SDS011;59999;51.676;22.650;2023-11-19T07:39:33;56.93;;;10.70;;
72125;SDS011;59999;51.676;22.650;2023-11-19T07:42:00;60.47;;;11.65;;
72125;SDS011;59999;51.676;22.650;2023-11-19T07:44:26;62.95;;;12.55;;
72125;SDS011;59999;51.676;22.650;2023-11-19T07:46:51;57.13;;;11.67;;
72125;SDS011;59999;51.676;22.650;2023-11-19T07:49:17;88.90;;;16.98;;
72125;SDS011;59999;51.676;22.650;2023-11-19T07:51:43;59.33;;;10.97;;
72125;SDS011;59999;51.676;22.650;2023-11-19T07:54:09;127.05;;;24.05;;
72125;SDS011;59999;51.676;22.650;2023-11-19T07:56:34;66.03;;;18.27;;
72125;SDS011;59999;51.676;22.650;2023-11-19T07:59:03;54.13;;;16.10;;
72125;SDS011;59999;51.676;22.650;2023-11-19T08:01:29;72.77;;;17.13;;
72125;SDS011;59999;51.676;22.650;2023-11-19T08:03:55;67.70;;;15.30;;
72125;SDS011;59999;51.676;22.650;2023-11-19T08:06:20;67.22;;;15.75;;
72125;SDS011;59999;51.676;22.650;2023-11-19T08:08:47;62.33;;;15.93;;
72125;SDS011;59999;51.676;22.650;2023-11-19T08:11:13;45.75;;;9.95;;
72125;SDS011;59999;51.676;22.650;2023-11-19T08:13:39;41.55;;;10.02;;
72125;SDS011;59999;51.676;22.650;2023-11-19T08:16:05;37.30;;;9.53;;
72125;SDS011;59999;51.676;22.650;2023-11-19T08:18:31;33.15;;;9.95;;
72125;SDS011;59999;51.676;22.650;2023-11-19T08:20:57;32.70;;;9.23;;
72125;SDS011;59999;51.676;22.650;2023-11-19T08:23:24;28.30;;;9.03;;
72125;SDS011;59999;51.676;22.650;2023-11-19T08:25:51;33.78;;;10.00;;
72125;SDS011;59999;51.676;22.650;2023-11-19T08:28:18;37.70;;;10.30;;
72125;SDS011;59999;51.676;22.650;2023-11-19T08:30:43;28.53;;;8.73;;
72125;SDS011;59999;51.676;22.650;2023-11-19T08:33:09;30.13;;;9.35;;
72125;SDS011;59999;51.676;22.650;2023-11-19T08:35:35;36.10;;;10.27;;
72125;SDS011;59999;51.676;22.650;2023-11-19T08:38:01;27.75;;;9.10;;
72125;SDS011;59999;51.676;22.650;2023-11-19T08:40:27;37.10;;;10.07;;
72125;SDS011;59999;51.676;22.650;2023-11-19T08:42:53;32.20;;;9.20;;
72125;SDS011;59999;51.676;22.650;2023-11-19T08:45:19;30.90;;;8.40;;
72125;SDS011;59999;51.676;22.650;2023-11-19T08:47:45;30.17;;;8.73;;
72125;SDS011;59999;51.676;22.650;2023-11-19T08:50:11;26.60;;;8.17;;
72125;SDS011;59999;51.676;22.650;2023-11-19T08:52:37;25.80;;;7.97;;
72125;SDS011;59999;51.676;22.650;2023-11-19T08:55:03;26.70;;;7.95;;
72125;SDS011;59999;51.676;22.650;2023-11-19T08:57:31;29.63;;;8.30;;
72125;SDS011;59999;51.676;22.650;2023-11-19T08:59:58;29.13;;;8.97;;
72125;SDS011;59999;51.676;22.650;2023-11-19T09:02:24;28.83;;;8.27;;
72125;SDS011;59999;51.676;22.650;2023-11-19T09:04:50;26.95;;;7.88;;
72125;SDS011;59999;51.676;22.650;2023-11-19T09:07:16;28.67;;;8.53;;
72125;SDS011;59999;51.676;22.650;2023-11-19T09:09:41;28.35;;;8.57;;
72125;SDS011;59999;51.676;22.650;2023-11-19T09:12:07;30.23;;;8.93;;
72125;SDS011;59999;51.676;22.650;2023-11-19T09:14:33;28.45;;;8.63;;
72125;SDS011;59999;51.676;22.650;2023-11-19T09:16:59;25.73;;;8.33;;
72125;SDS011;59999;51.676;22.650;2023-11-19T09:19:25;27.23;;;9.00;;
72125;SDS011;59999;51.676;22.650;2023-11-19T09:21:52;27.90;;;8.52;;
72125;SDS011;59999;51.676;22.650;2023-11-19T09:24:18;32.63;;;10.30;;
72125;SDS011;59999;51.676;22.650;2023-11-19T09:26:44;30.17;;;9.07;;
72125;SDS011;59999;51.676;22.650;2023-11-19T09:29:11;28.87;;;8.97;;
72125;SDS011;59999;51.676;22.650;2023-11-19T09:31:40;29.17;;;8.85;;
72125;SDS011;59999;51.676;22.650;2023-11-19T09:34:05;34.92;;;9.95;;
72125;SDS011;59999;51.676;22.650;2023-11-19T09:36:31;33.30;;;10.88;;
72125;SDS011;59999;51.676;22.650;2023-11-19T09:38:57;29.90;;;10.13;;
72125;SDS011;59999;51.676;22.650;2023-11-19T09:41:25;32.25;;;8.98;;
72125;SDS011;59999;51.676;22.650;2023-11-19T09:43:53;30.23;;;9.05;;
72125;SDS011;59999;51.676;22.650;2023-11-19T09:46:19;37.47;;;10.30;;
72125;SDS011;59999;51.676;22.650;2023-11-19T09:48:45;36.55;;;10.82;;
72125;SDS011;59999;51.676;22.650;2023-11-19T09:51:11;28.55;;;9.77;;
72125;SDS011;59999;51.676;22.650;2023-11-19T09:53:37;37.00;;;10.67;;
72125;SDS011;59999;51.676;22.650;2023-11-19T09:56:06;37.05;;;10.43;;
72125;SDS011;59999;51.676;22.650;2023-11-19T09:58:35;37.75;;;10.57;;
72125;SDS011;59999;51.676;22.650;2023-11-19T10:01:01;34.20;;;9.75;;
72125;SDS011;59999;51.676;22.650;2023-11-19T10:03:35;33.42;;;9.30;;
72125;SDS011;59999;51.676;22.650;2023-11-19T10:06:08;37.20;;;9.60;;
72125;SDS011;59999;51.676;22.650;2023-11-19T10:08:38;36.10;;;10.18;;
72125;SDS011;59999;51.676;22.650;2023-11-19T10:11:07;35.22;;;10.15;;
72125;SDS011;59999;51.676;22.650;2023-11-19T10:13:35;28.83;;;9.05;;
72125;SDS011;59999;51.676;22.650;2023-11-19T10:16:04;36.67;;;10.23;;
72125;SDS011;59999;51.676;22.650;2023-11-19T10:18:33;30.43;;;9.40;;
72125;SDS011;59999;51.676;22.650;2023-11-19T10:21:06;34.97;;;9.45;;
72125;SDS011;59999;51.676;22.650;2023-11-19T10:23:54;30.40;;;8.65;;
72125;SDS011;59999;51.676;22.650;2023-11-19T10:26:26;33.20;;;9.35;;
72125;SDS011;59999;51.676;22.650;2023-11-19T10:28:56;37.92;;;10.90;;
72125;SDS011;59999;51.676;22.650;2023-11-19T10:31:22;34.77;;;9.50;;
72125;SDS011;59999;51.676;22.650;2023-11-19T10:33:51;31.90;;;10.00;;
72125;SDS011;59999;51.676;22.650;2023-11-19T10:36:18;26.40;;;8.50;;
72125;SDS011;59999;51.676;22.650;2023-11-19T10:38:53;29.67;;;8.82;;
72125;SDS011;59999;51.676;22.650;2023-11-19T10:41:29;31.33;;;9.35;;
72125;SDS011;59999;51.676;22.650;2023-11-19T10:43:56;29.70;;;9.55;;
72125;SDS011;59999;51.676;22.650;2023-11-19T10:46:22;36.05;;;9.52;;
72125;SDS011;59999;51.676;22.650;2023-11-19T10:48:48;37.95;;;10.15;;
72125;SDS011;59999;51.676;22.650;2023-11-19T10:51:18;34.50;;;10.13;;
72125;SDS011;59999;51.676;22.650;2023-11-19T10:53:49;40.60;;;12.55;;
72125;SDS011;59999;51.676;22.650;2023-11-19T10:56:16;39.85;;;10.85;;
72125;SDS011;59999;51.676;22.650;2023-11-19T10:58:44;33.08;;;10.68;;
72125;SDS011;59999;51.676;22.650;2023-11-19T11:01:13;31.98;;;9.48;;
72125;SDS011;59999;51.676;22.650;2023-11-19T11:03:41;29.37;;;8.87;;
72125;SDS011;59999;51.676;22.650;2023-11-19T11:06:09;36.67;;;11.15;;
72125;SDS011;59999;51.676;22.650;2023-11-19T11:08:36;32.78;;;10.25;;
72125;SDS011;59999;51.676;22.650;2023-11-19T11:11:03;28.08;;;8.40;;
72125;SDS011;59999;51.676;22.650;2023-11-19T11:13:31;32.72;;;12.38;;
72125;SDS011;59999;51.676;22.650;2023-11-19T11:15:59;33.07;;;10.80;;
72125;SDS011;59999;51.676;22.650;2023-11-19T11:18:25;31.10;;;9.32;;
72125;SDS011;59999;51.676;22.650;2023-11-19T11:20:54;30.35;;;9.70;;
72125;SDS011;59999;51.676;22.650;2023-11-19T11:31:53;27.27;;;8.70;;
72125;SDS011;59999;51.676;22.650;2023-11-19T11:39:42;25.67;;;8.55;;
72125;SDS011;59999;51.676;22.650;2023-11-19T11:50:29;30.17;;;10.05;;
72125;SDS011;59999;51.676;22.650;2023-11-19T11:58:22;27.27;;;8.13;;
72125;SDS011;59999;51.676;22.650;2023-11-19T12:00:51;29.05;;;9.15;;
72125;SDS011;59999;51.676;22.650;2023-11-19T12:03:21;26.80;;;8.93;;
72125;SDS011;59999;51.676;22.650;2023-11-19T12:05:48;30.45;;;8.32;;
72125;SDS011;59999;51.676;22.650;2023-11-19T12:08:15;18.17;;;6.77;;
72125;SDS011;59999;51.676;22.650;2023-11-19T12:10:52;22.42;;;7.97;;
72125;SDS011;59999;51.676;22.650;2023-11-19T12:13:26;26.67;;;8.27;;
72125;SDS011;59999;51.676;22.650;2023-11-19T12:16:11;23.60;;;7.82;;
72125;SDS011;59999;51.676;22.650;2023-11-19T12:18:38;22.17;;;7.25;;
72125;SDS011;59999;51.676;22.650;2023-11-19T12:21:05;24.40;;;7.57;;
72125;SDS011;59999;51.676;22.650;2023-11-19T12:23:31;22.35;;;6.95;;
72125;SDS011;59999;51.676;22.650;2023-11-19T12:25:57;21.05;;;7.63;;
72125;SDS011;59999;51.676;22.650;2023-11-19T12:28:24;24.85;;;7.95;;
72125;SDS011;59999;51.676;22.650;2023-11-19T12:30:52;22.88;;;7.43;;
72125;SDS011;59999;51.676;22.650;2023-11-19T12:33:19;22.00;;;8.00;;
72125;SDS011;59999;51.676;22.650;2023-11-19T12:35:48;23.48;;;7.18;;
72125;SDS011;59999;51.676;22.650;2023-11-19T12:38:20;21.73;;;7.43;;
72125;SDS011;59999;51.676;22.650;2023-11-19T12:40:46;21.00;;;7.10;;
72125;SDS011;59999;51.676;22.650;2023-11-19T12:43:22;24.88;;;7.70;;
72125;SDS011;59999;51.676;22.650;2023-11-19T12:45:48;21.57;;;7.30;;
72125;SDS011;59999;51.676;22.650;2023-11-19T12:48:13;24.38;;;7.85;;
72125;SDS011;59999;51.676;22.650;2023-11-19T12:50:58;24.35;;;6.93;;
72125;SDS011;59999;51.676;22.650;2023-11-19T12:53:25;23.73;;;7.67;;
72125;SDS011;59999;51.676;22.650;2023-11-19T12:55:52;26.27;;;8.30;;
72125;SDS011;59999;51.676;22.650;2023-11-19T12:58:31;21.23;;;7.05;;
72125;SDS011;59999;51.676;22.650;2023-11-19T13:01:07;21.15;;;6.95;;
72125;SDS011;59999;51.676;22.650;2023-11-19T13:03:35;22.02;;;7.25;;
72125;SDS011;59999;51.676;22.650;2023-11-19T13:06:10;20.07;;;7.27;;
72125;SDS011;59999;51.676;22.650;2023-11-19T13:08:37;23.17;;;7.60;;
72125;SDS011;59999;51.676;22.650;2023-11-19T13:11:04;26.20;;;8.15;;
72125;SDS011;59999;51.676;22.650;2023-11-19T13:13:32;23.83;;;7.72;;
72125;SDS011;59999;51.676;22.650;2023-11-19T13:16:04;22.95;;;6.93;;
72125;SDS011;59999;51.676;22.650;2023-11-19T13:18:34;22.20;;;7.95;;
72125;SDS011;59999;51.676;22.650;2023-11-19T13:21:00;24.98;;;8.23;;
72125;SDS011;59999;51.676;22.650;2023-11-19T13:23:26;23.17;;;8.40;;
72125;SDS011;59999;51.676;22.650;2023-11-19T13:25:51;25.88;;;7.78;;
72125;SDS011;59999;51.676;22.650;2023-11-19T13:28:18;22.48;;;7.45;;
72125;SDS011;59999;51.676;22.650;2023-11-19T13:30:44;23.13;;;7.75;;
72125;SDS011;59999;51.676;22.650;2023-11-19T13:33:10;26.40;;;9.27;;
72125;SDS011;59999;51.676;22.650;2023-11-19T13:35:37;20.67;;;6.93;;
72125;SDS011;59999;51.676;22.650;2023-11-19T13:38:06;21.73;;;7.03;;
72125;SDS011;59999;51.676;22.650;2023-11-19T13:40:34;27.50;;;7.47;;
72125;SDS011;59999;51.676;22.650;2023-11-19T13:43:00;25.10;;;7.70;;
72125;SDS011;59999;51.676;22.650;2023-11-19T13:45:26;25.70;;;7.45;;
72125;SDS011;59999;51.676;22.650;2023-11-19T13:47:52;24.37;;;7.33;;
72125;SDS011;59999;51.676;22.650;2023-11-19T13:50:17;23.77;;;7.32;;
72125;SDS011;59999;51.676;22.650;2023-11-19T13:52:44;24.58;;;7.75;;
72125;SDS011;59999;51.676;22.650;2023-11-19T13:55:13;21.83;;;6.90;;
72125;SDS011;59999;51.676;22.650;2023-11-19T13:57:40;24.02;;;6.82;;
72125;SDS011;59999;51.676;22.650;2023-11-19T14:00:07;20.15;;;6.60;;
72125;SDS011;59999;51.676;22.650;2023-11-19T14:02:45;25.05;;;7.75;;
72125;SDS011;59999;51.676;22.650;2023-11-19T14:05:12;22.13;;;7.43;;
72125;SDS011;59999;51.676;22.650;2023-11-19T14:07:39;26.10;;;7.18;;
72125;SDS011;59999;51.676;22.650;2023-11-19T14:10:06;26.05;;;7.93;;
72125;SDS011;59999;51.676;22.650;2023-11-19T14:12:32;26.77;;;7.65;;
72125;SDS011;59999;51.676;22.650;2023-11-19T14:14:58;24.87;;;7.47;;
72125;SDS011;59999;51.676;22.650;2023-11-19T14:17:26;26.05;;;8.20;;
72125;SDS011;59999;51.676;22.650;2023-11-19T14:19:54;24.67;;;7.22;;
72125;SDS011;59999;51.676;22.650;2023-11-19T14:22:19;23.90;;;7.40;;
72125;SDS011;59999;51.676;22.650;2023-11-19T14:24:45;21.40;;;6.93;;
72125;SDS011;59999;51.676;22.650;2023-11-19T14:27:11;28.70;;;8.32;;
72125;SDS011;59999;51.676;22.650;2023-11-19T14:29:36;25.57;;;7.60;;
72125;SDS011;59999;51.676;22.650;2023-11-19T14:32:03;27.38;;;7.53;;
72125;SDS011;59999;51.676;22.650;2023-11-19T14:34:31;22.13;;;7.47;;
72125;SDS011;59999;51.676;22.650;2023-11-19T14:36:58;23.38;;;7.88;;
72125;SDS011;59999;51.676;22.650;2023-11-19T14:39:24;27.02;;;8.75;;
72125;SDS011;59999;51.676;22.650;2023-11-19T14:41:50;28.40;;;8.73;;
72125;SDS011;59999;51.676;22.650;2023-11-19T14:44:17;26.33;;;8.05;;